Time;durP1;ratioP1;P1;durP2;ratioP2;P2;SDS_P1;SDS_P2;PMS_P1;PMS_P2;Temp;Humidity;BMP_temperature;BMP_pressure;BME280_temperature;BME280_humidity;BME280_pressure;Samples;Min_cycle;Max_cycle;Signal;HPM_P1;HPM_P2
2022/07/14 00:00:37;;;;;;;1.83;0.60;;;16.90;71.40;;;;;;5076580;28;20044;-79
2022/07/14 00:03:03;;;;;;;1.08;0.38;;;16.80;71.50;;;;;;5094467;28;20032;-80
2022/07/14 00:05:29;;;;;;;1.10;0.40;;;16.90;71.60;;;;;;5059547;28;20133;-80
2022/07/14 00:07:55;;;;;;;0.77;0.40;;;16.80;71.70;;;;;;5076474;28;20044;-80
2022/07/14 00:10:21;;;;;;;0.30;0.30;;;16.80;71.80;;;;;;5094705;28;20048;-80
2022/07/14 00:12:47;;;;;;;0.40;0.40;;;16.70;72.50;;;;;;5094781;28;20039;-80
2022/07/14 00:15:13;;;;;;;1.95;0.45;;;16.70;72.00;;;;;;5094256;28;20123;-79
2022/07/14 00:17:38;;;;;;;1.50;0.50;;;16.70;72.10;;;;;;5059393;28;20063;-79
2022/07/14 00:20:05;;;;;;;1.05;0.40;;;16.60;72.10;;;;;;5076140;28;20123;-79
2022/07/14 00:22:31;;;;;;;0.57;0.30;;;16.60;72.20;;;;;;5076492;28;20127;-80
2022/07/14 00:24:57;;;;;;;0.95;0.40;;;16.60;72.20;;;;;;5076403;28;20074;-79
2022/07/14 00:27:22;;;;;;;0.50;0.38;;;16.60;72.30;;;;;;5094067;28;20040;-79
2022/07/14 00:29:48;;;;;;;0.30;0.30;;;16.50;72.30;;;;;;5093810;28;20385;-79
2022/07/14 00:32:14;;;;;;;0.65;0.30;;;16.50;72.50;;;;;;5093828;28;20043;-80
2022/07/14 00:34:40;;;;;;;0.60;0.40;;;16.50;72.50;;;;;;5059175;28;20131;-79
2022/07/14 00:37:06;;;;;;;0.35;0.30;;;16.50;72.50;;;;;;5076021;28;20043;-80
2022/07/14 00:39:54;;;;;;;1.20;0.38;;;16.50;72.50;;;;;;5093724;28;20036;-79
2022/07/14 00:42:27;;;;;;;0.70;0.40;;;16.50;72.50;;;;;;5078739;28;20050;-80
2022/07/14 00:44:53;;;;;;;0.63;0.40;;;16.60;72.60;;;;;;5074187;28;20047;-79
2022/07/14 00:47:19;;;;;;;1.23;0.40;;;16.50;72.50;;;;;;5094412;28;20047;-79
2022/07/14 00:49:44;;;;;;;0.95;0.43;;;16.50;72.60;;;;;;5094379;28;20482;-80
2022/07/14 00:52:10;;;;;;;0.50;0.30;;;16.40;72.50;;;;;;5093684;28;20055;-80
2022/07/14 00:54:36;;;;;;;0.73;0.30;;;16.40;72.60;;;;;;5093764;28;20036;-80
2022/07/14 00:57:02;;;;;;;0.20;0.20;;;16.50;72.70;;;;;;5075623;28;20102;-79
2022/07/14 00:59:28;;;;;;;0.30;0.30;;;16.50;72.60;;;;;;5093615;28;20418;-79
2022/07/14 01:01:54;;;;;;;0.60;0.40;;;16.50;72.70;;;;;;5094046;28;20150;-80
2022/07/14 01:04:19;;;;;;;0.82;0.40;;;16.40;72.70;;;;;;5093649;28;20043;-80
2022/07/14 01:06:45;;;;;;;0.50;0.40;;;16.40;72.80;;;;;;5075276;28;20082;-79
2022/07/14 01:09:11;;;;;;;0.80;0.40;;;16.40;72.90;;;;;;5075832;28;20506;-80
2022/07/14 01:11:37;;;;;;;0.45;0.30;;;16.40;72.90;;;;;;5093587;28;20040;-80
2022/07/14 01:14:03;;;;;;;0.70;0.55;;;16.40;73.00;;;;;;5075537;28;20036;-80
2022/07/14 01:16:29;;;;;;;1.00;0.40;;;16.40;73.10;;;;;;5093438;28;20052;-80
2022/07/14 01:18:55;;;;;;;1.30;0.52;;;16.30;73.10;;;;;;5093842;28;20048;-80
2022/07/14 01:21:21;;;;;;;1.38;0.70;;;16.30;73.20;;;;;;5075467;28;20047;-80
2022/07/14 01:23:46;;;;;;;1.15;0.57;;;16.30;73.20;;;;;;5058513;28;20047;-80
2022/07/14 01:26:12;;;;;;;1.15;0.50;;;16.30;73.20;;;;;;5075075;28;20403;-79
2022/07/14 01:28:38;;;;;;;0.65;0.38;;;16.40;73.30;;;;;;5075008;28;20181;-80
2022/07/14 01:31:04;;;;;;;1.83;0.40;;;16.30;73.30;;;;;;5093142;28;20039;-79
2022/07/14 01:33:29;;;;;;;1.27;0.50;;;16.30;73.30;;;;;;5058301;28;20070;-79
2022/07/14 01:35:55;;;;;;;0.95;0.50;;;16.30;73.30;;;;;;5075144;28;20039;-80
2022/07/14 01:38:21;;;;;;;0.65;0.40;;;16.30;73.30;;;;;;5093518;28;20051;-80
2022/07/14 01:40:47;;;;;;;0.85;0.43;;;16.20;73.40;;;;;;5093287;28;20040;-80
2022/07/14 01:43:12;;;;;;;0.57;0.50;;;16.20;73.40;;;;;;5093343;28;20032;-79
2022/07/14 01:45:38;;;;;;;0.50;0.30;;;16.30;73.50;;;;;;5074879;28;20054;-79
2022/07/14 01:48:04;;;;;;;0.40;0.30;;;16.20;73.40;;;;;;5093146;28;20040;-80
2022/07/14 01:50:30;;;;;;;0.30;0.30;;;16.10;73.30;;;;;;5074315;28;20067;-79
2022/07/14 01:52:55;;;;;;;0.63;0.45;;;16.20;73.50;;;;;;5058389;28;20040;-79
2022/07/14 01:55:21;;;;;;;0.22;0.22;;;16.20;73.50;;;;;;5092828;28;20044;-80
2022/07/14 01:57:47;;;;;;;0.20;0.20;;;16.10;73.50;;;;;;5074442;28;20093;-80
2022/07/14 02:00:14;;;;;;;0.30;0.30;;;16.00;73.70;;;;;;5074421;28;20403;-79
2022/07/14 02:02:39;;;;;;;0.32;0.32;;;16.10;73.80;;;;;;5074561;28;20040;-79
2022/07/14 02:05:08;;;;;;;1.50;0.50;;;16.00;73.90;;;;;;5092890;28;20122;-80
2022/07/14 02:07:34;;;;;;;1.17;0.52;;;16.00;73.90;;;;;;5073171;28;20135;-80
2022/07/14 02:12:36;;;;;;;0.38;0.30;;;15.90;74.00;;;;;;5092433;28;20109;-79
2022/07/14 02:15:01;;;;;;;0.43;0.40;;;15.90;74.10;;;;;;5073736;28;20484;-79
2022/07/14 02:17:28;;;;;;;0.45;0.35;;;15.80;74.10;;;;;;5074662;28;20063;-79
2022/07/14 02:19:53;;;;;;;0.40;0.40;;;15.80;74.20;;;;;;5092390;28;20055;-79
2022/07/14 02:22:19;;;;;;;0.32;0.32;;;15.70;74.20;;;;;;5074142;28;20487;-79
2022/07/14 02:24:45;;;;;;;1.08;0.40;;;15.70;74.30;;;;;;5074076;28;20048;-80
2022/07/14 02:27:11;;;;;;;0.50;0.35;;;15.60;74.30;;;;;;5074602;28;20048;-80
2022/07/14 02:29:36;;;;;;;0.22;0.22;;;15.60;74.40;;;;;;5092287;28;20039;-79
2022/07/14 02:32:02;;;;;;;0.57;0.40;;;15.60;74.50;;;;;;5058040;28;20047;-80
2022/07/14 02:34:29;;;;;;;0.63;0.35;;;15.60;74.40;;;;;;5040839;28;20112;-80
2022/07/14 02:36:55;;;;;;;1.20;0.50;;;15.60;74.50;;;;;;5092709;28;20123;-80
2022/07/14 02:39:20;;;;;;;0.70;0.30;;;15.50;74.60;;;;;;5092285;28;20514;-80
2022/07/14 02:41:46;;;;;;;0.40;0.30;;;15.40;74.60;;;;;;5092690;28;20039;-79
2022/07/14 02:44:12;;;;;;;0.40;0.40;;;15.40;74.70;;;;;;5092728;28;20094;-80
2022/07/14 02:46:38;;;;;;;0.40;0.40;;;15.40;74.80;;;;;;5074479;28;20182;-80
2022/07/14 02:49:04;;;;;;;0.45;0.30;;;15.30;74.70;;;;;;5091895;28;20462;-79
2022/07/14 02:51:30;;;;;;;0.93;0.40;;;15.30;74.80;;;;;;5057322;28;20404;-80
2022/07/14 02:53:56;;;;;;;0.52;0.20;;;15.30;74.90;;;;;;5092402;28;20047;-80
2022/07/14 02:56:22;;;;;;;0.45;0.30;;;15.20;74.80;;;;;;5073854;28;20044;-80
2022/07/14 02:58:47;;;;;;;0.20;0.20;;;15.20;74.80;;;;;;5073637;28;20131;-79
2022/07/14 03:01:13;;;;;;;1.38;0.40;;;15.20;74.90;;;;;;5073862;28;20028;-79
2022/07/14 03:03:39;;;;;;;0.82;0.30;;;15.20;75.00;;;;;;5092034;28;20070;-80
2022/07/14 03:06:12;;;;;;;0.30;0.30;;;15.20;75.10;;;;;;5074409;28;20456;-80
2022/07/14 03:08:38;;;;;;;0.30;0.30;;;15.10;75.10;;;;;;5071792;28;20039;-80
2022/07/14 03:11:04;;;;;;;0.47;0.40;;;15.10;75.10;;;;;;5091604;28;20483;-79
2022/07/14 03:13:30;;;;;;;0.35;0.35;;;15.10;75.10;;;;;;5073780;28;20063;-79
2022/07/14 03:15:56;;;;;;;0.28;0.28;;;15.00;75.10;;;;;;5073862;28;20086;-80
2022/07/14 03:18:24;;;;;;;0.35;0.30;;;14.90;75.10;;;;;;5073816;28;20040;-80
2022/07/14 03:20:51;;;;;;;0.70;0.35;;;14.90;75.20;;;;;;5091612;28;20041;-79
2022/07/14 03:23:17;;;;;;;0.30;0.30;;;14.90;75.30;;;;;;5073864;28;20036;-80
2022/07/14 03:25:43;;;;;;;0.65;0.40;;;15.00;75.40;;;;;;5073712;28;20036;-80
2022/07/14 03:28:10;;;;;;;0.35;0.35;;;14.90;75.40;;;;;;5043563;28;20043;-79
2022/07/14 03:30:36;;;;;;;0.77;0.43;;;14.90;75.50;;;;;;5095025;28;20093;-80
2022/07/14 03:33:02;;;;;;;0.82;0.40;;;14.80;75.50;;;;;;5076717;28;20469;-80
2022/07/14 03:35:27;;;;;;;0.60;0.40;;;14.80;75.50;;;;;;5076795;28;20495;-80
2022/07/14 03:37:54;;;;;;;0.43;0.30;;;14.80;75.60;;;;;;5095244;28;20063;-80
2022/07/14 03:40:20;;;;;;;1.35;0.32;;;14.80;75.60;;;;;;5077017;28;20040;-79
2022/07/14 03:42:46;;;;;;;0.22;0.22;;;14.70;75.60;;;;;;5077216;28;20044;-80
2022/07/14 03:45:11;;;;;;;0.32;0.30;;;14.70;75.70;;;;;;5077016;28;20123;-80
2022/07/14 03:47:37;;;;;;;0.95;0.35;;;14.60;75.70;;;;;;5076670;28;20079;-80
2022/07/14 03:50:03;;;;;;;1.85;0.38;;;14.70;75.80;;;;;;5076518;28;20043;-80
2022/07/14 03:52:29;;;;;;;1.13;0.40;;;14.60;75.80;;;;;;5059660;28;20039;-80
2022/07/14 03:54:55;;;;;;;0.30;0.30;;;14.50;75.80;;;;;;5059456;28;20442;-80
2022/07/14 03:57:21;;;;;;;0.30;0.30;;;14.50;75.80;;;;;;5059663;28;20483;-80
2022/07/14 03:59:46;;;;;;;0.30;0.30;;;14.50;75.80;;;;;;5094919;28;20090;-80
2022/07/14 04:02:12;;;;;;;0.60;0.40;;;14.50;75.90;;;;;;5043329;28;20459;-80
2022/07/14 04:04:39;;;;;;;0.30;0.20;;;14.50;75.90;;;;;;5076662;28;20035;-80
2022/07/14 04:07:05;;;;;;;1.08;0.30;;;14.50;75.90;;;;;;5095269;28;20067;-80
2022/07/14 04:09:31;;;;;;;0.60;0.40;;;14.50;75.90;;;;;;5076707;28;20044;-80
2022/07/14 04:11:57;;;;;;;0.52;0.30;;;14.40;75.90;;;;;;5095034;28;20048;-80
2022/07/14 04:14:24;;;;;;;0.45;0.30;;;14.50;76.00;;;;;;5095199;28;20055;-80
2022/07/14 04:16:52;;;;;;;1.02;0.57;;;14.50;76.00;;;;;;5094703;28;20059;-80
2022/07/14 04:19:18;;;;;;;0.55;0.30;;;14.50;76.00;;;;;;5076629;28;20067;-80
2022/07/14 04:21:44;;;;;;;0.50;0.25;;;14.50;75.80;;;;;;5060000;28;20044;-80
2022/07/14 04:24:10;;;;;;;0.35;0.30;;;14.50;75.90;;;;;;5094684;28;20044;-80
2022/07/14 04:26:37;;;;;;;0.65;0.30;;;14.50;75.90;;;;;;5094974;28;20048;-81
2022/07/14 04:29:04;;;;;;;0.30;0.30;;;14.50;75.80;;;;;;5094701;28;20047;-80
2022/07/14 04:31:30;;;;;;;0.70;0.22;;;14.50;75.80;;;;;;5059692;28;20059;-80
2022/07/14 04:33:57;;;;;;;0.25;0.25;;;14.60;75.80;;;;;;5076087;28;20048;-80
2022/07/14 04:36:23;;;;;;;1.27;0.57;;;14.70;75.80;;;;;;5058528;28;20087;-80
2022/07/14 04:38:49;;;;;;;0.20;0.20;;;14.50;76.40;;;;;;5059355;28;20036;-80
2022/07/14 04:41:14;;;;;;;0.82;0.30;;;14.60;75.80;;;;;;5075900;28;20495;-80
2022/07/14 04:43:40;;;;;;;0.70;0.43;;;14.60;75.80;;;;;;5094362;28;20056;-81
2022/07/14 04:46:06;;;;;;;0.85;0.35;;;14.50;75.80;;;;;;5094560;28;20150;-81
2022/07/14 04:52:01;;;;;;;0.73;0.30;;;14.60;75.80;;;;;;5075934;28;20040;-80
2022/07/14 04:53:58;;;;;;;0.30;0.30;;;14.70;75.80;;;;;;5078115;28;20040;-81
2022/07/14 04:56:24;;;;;;;0.30;0.30;;;14.70;75.70;;;;;;5076200;28;20065;-81
2022/07/14 04:58:50;;;;;;;0.20;0.20;;;14.70;75.60;;;;;;5076024;28;20038;-81
2022/07/14 05:01:17;;;;;;;0.60;0.28;;;14.70;75.60;;;;;;5094453;28;20039;-81
2022/07/14 05:03:42;;;;;;;0.57;0.30;;;14.80;75.60;;;;;;5094377;28;20059;-80
2022/07/14 05:06:08;;;;;;;0.32;0.30;;;14.80;75.50;;;;;;5059677;28;20044;-81
2022/07/14 05:08:34;;;;;;;0.52;0.40;;;14.90;75.30;;;;;;5075127;28;20076;-81
2022/07/14 05:10:59;;;;;;;0.40;0.30;;;15.00;75.30;;;;;;5076570;28;20123;-81
2022/07/14 05:13:25;;;;;;;0.28;0.20;;;15.00;75.20;;;;;;5076413;28;20043;-81
2022/07/14 05:15:51;;;;;;;0.20;0.20;;;15.10;75.10;;;;;;5094127;28;20139;-81
2022/07/14 05:18:17;;;;;;;0.38;0.30;;;15.20;75.10;;;;;;5094241;28;20066;-81
2022/07/14 05:20:42;;;;;;;0.38;0.30;;;15.30;75.00;;;;;;5094964;28;20392;-81
2022/07/14 05:23:08;;;;;;;0.50;0.30;;;15.40;75.40;;;;;;5094680;28;20044;-81
2022/07/14 05:25:34;;;;;;;0.30;0.30;;;15.50;74.50;;;;;;5094618;28;20040;-81
2022/07/14 05:27:59;;;;;;;0.90;0.30;;;15.60;74.40;;;;;;5096168;28;20486;-81
2022/07/14 05:30:25;;;;;;;0.40;0.30;;;15.70;74.30;;;;;;5079178;28;20036;-81
2022/07/14 05:32:51;;;;;;;1.42;0.43;;;15.80;74.10;;;;;;5096432;28;20048;-80
2022/07/14 05:35:16;;;;;;;1.27;0.30;;;15.90;73.90;;;;;;5094995;28;20059;-80
2022/07/14 05:37:42;;;;;;;0.75;0.40;;;16.00;73.70;;;;;;5075702;28;20044;-80
2022/07/14 05:40:08;;;;;;;0.73;0.50;;;16.20;73.60;;;;;;5075472;28;20051;-80
2022/07/14 05:42:34;;;;;;;0.22;0.22;;;16.20;73.40;;;;;;5058789;28;20039;-80
2022/07/14 05:45:00;;;;;;;1.23;0.40;;;16.30;73.30;;;;;;5094665;28;20403;-80
2022/07/14 05:47:25;;;;;;;0.65;0.30;;;16.40;73.20;;;;;;5076421;28;20047;-80
2022/07/14 05:49:51;;;;;;;1.45;0.32;;;16.30;73.10;;;;;;5075901;28;20143;-80
2022/07/14 05:52:17;;;;;;;0.30;0.30;;;16.40;73.10;;;;;;5093859;28;20055;-80
2022/07/14 05:54:42;;;;;;;1.55;0.50;;;16.50;73.10;;;;;;5074589;28;20051;-80
2022/07/14 05:57:09;;;;;;;0.40;0.30;;;16.60;73.00;;;;;;5093947;28;20381;-80
2022/07/14 05:59:35;;;;;;;0.65;0.40;;;16.60;73.00;;;;;;5076831;28;20484;-79
2022/07/14 06:02:04;;;;;;;0.80;0.50;;;16.70;73.00;;;;;;5076762;28;20036;-80
2022/07/14 06:04:29;;;;;;;0.90;0.32;;;16.70;73.10;;;;;;5059445;28;20127;-80
2022/07/14 06:06:55;;;;;;;0.65;0.30;;;16.70;73.10;;;;;;5075803;28;20071;-80
2022/07/14 06:09:21;;;;;;;0.20;0.20;;;16.70;73.00;;;;;;5098356;28;20047;-77
2022/07/14 06:11:47;;;;;;;0.55;0.38;;;16.80;73.00;;;;;;5092964;28;20495;-77
2022/07/14 06:14:14;;;;;;;1.85;0.47;;;16.80;72.90;;;;;;5074564;28;20044;-77
2022/07/14 06:16:40;;;;;;;0.35;0.30;;;16.90;72.80;;;;;;5073004;28;20036;-77
2022/07/14 06:19:06;;;;;;;1.65;0.40;;;16.90;72.70;;;;;;5076965;28;20047;-77
2022/07/14 06:21:32;;;;;;;1.45;0.30;;;17.00;72.70;;;;;;5076780;28;20103;-76
2022/07/14 06:23:57;;;;;;;0.90;0.40;;;17.00;72.60;;;;;;5098952;28;20044;-77
2022/07/14 06:26:24;;;;;;;1.45;0.50;;;17.00;72.50;;;;;;5097398;28;20048;-77
2022/07/14 06:28:50;;;;;;;0.95;0.30;;;17.10;72.50;;;;;;5096396;28;20103;-77
2022/07/14 06:31:15;;;;;;;0.30;0.30;;;17.10;72.40;;;;;;5060718;28;20039;-76
2022/07/14 06:33:41;;;;;;;0.80;0.30;;;17.10;72.20;;;;;;5093308;28;20590;-77
2022/07/14 06:36:08;;;;;;;0.93;0.30;;;17.20;72.10;;;;;;5061293;28;20404;-77
2022/07/14 06:40:03;;;;;;;0.75;0.32;;;17.30;72.00;;;;;;5102641;28;20466;-78
2022/07/14 06:42:36;;;;;;;1.02;0.50;;;17.40;71.70;;;;;;4946647;28;20051;-76
2022/07/14 06:45:06;;;;;;;1.00;0.30;;;17.50;72.10;;;;;;4971882;28;20062;-76
2022/07/14 06:47:38;;;;;;;0.65;0.40;;;17.60;71.90;;;;;;4945453;29;20059;-78
2022/07/14 06:50:08;;;;;;;0.68;0.40;;;17.70;71.10;;;;;;4955617;28;20066;-76
2022/07/14 06:52:35;;;;;;;1.13;0.35;;;17.80;70.80;;;;;;4895788;29;20616;-76
2022/07/14 06:55:23;;;;;;;0.40;0.30;;;18.00;70.60;;;;;;4908202;29;20072;-76
2022/07/14 06:58:45;;;;;;;1.45;0.40;;;18.00;70.40;;;;;;4878435;29;20045;-76
2022/07/14 07:01:11;;;;;;;0.50;0.40;;;18.20;70.10;;;;;;4838963;29;20058;-76
2022/07/14 07:03:37;;;;;;;0.85;0.57;;;18.40;70.00;;;;;;4840306;29;20090;-76
2022/07/14 07:08:51;;;;;;;0.52;0.30;;;18.60;69.60;;;;;;4840324;29;20043;-77
2022/07/14 07:11:17;;;;;;;0.30;0.30;;;18.70;69.40;;;;;;4827933;29;20122;-77
2022/07/14 07:13:45;;;;;;;0.98;0.47;;;18.90;69.20;;;;;;4804283;29;20042;-76
2022/07/14 07:16:14;;;;;;;0.98;0.40;;;19.20;69.20;;;;;;4832414;29;20509;-77
2022/07/14 07:18:40;;;;;;;0.65;0.30;;;19.40;68.90;;;;;;4907328;29;20052;-76
2022/07/14 07:21:06;;;;;;;0.82;0.40;;;19.40;68.70;;;;;;4885667;29;20123;-78
2022/07/14 07:23:34;;;;;;;0.55;0.40;;;19.60;68.50;;;;;;4906631;29;20556;-77
2022/07/14 07:26:00;;;;;;;1.15;0.30;;;19.70;68.30;;;;;;4904686;29;20044;-75
2022/07/14 07:28:28;;;;;;;1.00;0.47;;;19.90;68.30;;;;;;4931226;29;20408;-75
2022/07/14 07:31:21;;;;;;;0.30;0.30;;;20.10;68.30;;;;;;5022303;28;20052;-76
2022/07/14 07:34:28;;;;;;;0.73;0.45;;;20.20;67.90;;;;;;4899990;29;20189;-79
2022/07/14 07:36:54;;;;;;;0.30;0.30;;;20.50;67.70;;;;;;4932758;29;20066;-76
2022/07/14 07:39:20;;;;;;;0.60;0.47;;;20.70;67.50;;;;;;4919660;29;20044;-76
2022/07/14 07:41:45;;;;;;;0.50;0.40;;;20.90;67.30;;;;;;4932509;29;20061;-76
2022/07/14 07:44:11;;;;;;;0.35;0.32;;;21.10;67.20;;;;;;4975445;28;20079;-76
2022/07/14 07:46:37;;;;;;;2.50;0.60;;;21.10;66.90;;;;;;4931471;28;20155;-75
2022/07/14 07:49:02;;;;;;;0.20;0.20;;;21.20;66.90;;;;;;4964701;28;20102;-77
2022/07/14 07:51:28;;;;;;;0.95;0.40;;;21.30;66.90;;;;;;4967091;28;20046;-77
2022/07/14 07:53:53;;;;;;;0.40;0.40;;;21.40;66.90;;;;;;4951007;28;20530;-75
2022/07/14 07:56:25;;;;;;;0.47;0.40;;;21.50;66.80;;;;;;4989845;28;20539;-77
2022/07/14 07:58:50;;;;;;;0.43;0.35;;;21.70;66.60;;;;;;4972905;28;20082;-75
2022/07/14 08:01:16;;;;;;;0.30;0.30;;;21.90;66.40;;;;;;4963310;28;20047;-76
2022/07/14 08:03:42;;;;;;;0.82;0.40;;;21.90;66.20;;;;;;4995914;28;20053;-76
2022/07/14 08:06:07;;;;;;;0.85;0.40;;;22.10;66.10;;;;;;5090394;28;20103;-76
2022/07/14 08:08:33;;;;;;;1.13;0.50;;;22.40;65.90;;;;;;5076958;28;20092;-75
2022/07/14 08:10:59;;;;;;;1.17;0.45;;;22.40;65.60;;;;;;5095205;28;20492;-74
2022/07/14 08:13:32;;;;;;;0.50;0.40;;;22.50;65.60;;;;;;5059407;28;20044;-75
2022/07/14 08:15:59;;;;;;;0.65;0.40;;;22.60;65.70;;;;;;5074388;28;20072;-76
2022/07/14 08:21:26;;;;;;;0.47;0.30;;;22.90;65.30;;;;;;5016395;28;20064;-75
2022/07/14 08:30:03;;;;;;;0.80;0.50;;;23.20;65.00;;;;;;4870606;29;20112;-76
2022/07/14 08:33:51;;;;;;;0.52;0.47;;;23.30;64.70;;;;;;4878071;29;20569;-76
2022/07/14 08:35:51;;;;;;;0.20;0.20;;;23.50;64.60;;;;;;4872649;29;20041;-77
2022/07/14 08:38:50;;;;;;;0.40;0.30;;;23.60;64.60;;;;;;4847086;29;20068;-76
2022/07/14 08:41:17;;;;;;;0.68;0.40;;;23.60;65.10;;;;;;4853049;29;20049;-76
2022/07/14 08:43:45;;;;;;;1.02;0.30;;;23.70;64.40;;;;;;4877348;29;20045;-77
2022/07/14 08:46:11;;;;;;;0.47;0.40;;;23.60;64.40;;;;;;4862332;29;20044;-73
2022/07/14 08:48:37;;;;;;;0.30;0.30;;;23.60;64.60;;;;;;4862818;29;20041;-73
2022/07/14 08:51:05;;;;;;;0.45;0.30;;;23.70;64.40;;;;;;4844874;29;20045;-76
2022/07/14 08:53:31;;;;;;;0.57;0.30;;;23.80;64.30;;;;;;4847656;29;20049;-75
2022/07/14 08:55:58;;;;;;;0.30;0.30;;;24.10;64.10;;;;;;4846624;29;20136;-73
2022/07/14 08:58:24;;;;;;;0.77;0.40;;;24.10;63.80;;;;;;4958001;28;20507;-73
2022/07/14 09:00:50;;;;;;;0.40;0.38;;;24.20;63.50;;;;;;5032499;28;20132;-73
2022/07/14 09:03:16;;;;;;;1.00;0.40;;;24.20;63.10;;;;;;5051179;28;20071;-74
2022/07/14 09:05:44;;;;;;;1.15;0.40;;;24.40;63.20;;;;;;5075202;28;20040;-73
2022/07/14 09:08:12;;;;;;;0.28;0.28;;;24.40;62.90;;;;;;5093821;28;20044;-73
2022/07/14 09:10:39;;;;;;;0.28;0.28;;;24.40;62.70;;;;;;5093640;28;20074;-73
2022/07/14 09:13:11;;;;;;;0.30;0.30;;;24.40;62.70;;;;;;5075608;28;20114;-74
2022/07/14 09:15:44;;;;;;;0.30;0.30;;;24.40;62.70;;;;;;5057380;28;20166;-74
2022/07/14 09:18:22;;;;;;;0.38;0.28;;;24.40;62.70;;;;;;5075625;28;20051;-74
2022/07/14 09:20:49;;;;;;;1.20;0.30;;;24.40;62.60;;;;;;5075368;28;20492;-73
2022/07/14 09:23:14;;;;;;;0.32;0.30;;;24.60;62.70;;;;;;5074714;28;20036;-73
2022/07/14 09:25:41;;;;;;;0.70;0.40;;;24.70;62.20;;;;;;5093625;28;20504;-73
2022/07/14 09:28:07;;;;;;;0.50;0.35;;;24.90;62.10;;;;;;5075161;28;20514;-73
2022/07/14 09:30:33;;;;;;;0.30;0.30;;;24.80;62.00;;;;;;5093349;28;20127;-73
2022/07/14 09:33:03;;;;;;;0.60;0.30;;;24.80;61.90;;;;;;5074962;28;20044;-73
2022/07/14 09:35:41;;;;;;;0.52;0.38;;;24.80;62.10;;;;;;5093635;28;20052;-74
2022/07/14 09:38:20;;;;;;;0.85;0.50;;;24.80;61.80;;;;;;5034510;28;20044;-75
2022/07/14 09:40:48;;;;;;;0.75;0.40;;;24.50;62.20;;;;;;5050875;28;20068;-73
2022/07/14 09:43:15;;;;;;;0.77;0.30;;;24.40;62.70;;;;;;5017455;28;20076;-74
2022/07/14 09:45:44;;;;;;;0.40;0.40;;;24.40;62.70;;;;;;5034297;28;20040;-75
2022/07/14 09:48:14;;;;;;;0.75;0.30;;;24.40;62.40;;;;;;5018537;28;20047;-74
2022/07/14 09:50:56;;;;;;;0.28;0.28;;;24.50;62.10;;;;;;5034397;28;20598;-74
2022/07/14 09:53:31;;;;;;;0.30;0.30;;;24.70;61.70;;;;;;5051212;28;20087;-73
2022/07/14 09:56:04;;;;;;;0.55;0.38;;;24.80;61.30;;;;;;5035049;28;20044;-76
2022/07/14 09:58:33;;;;;;;0.95;0.20;;;25.00;60.90;;;;;;5050537;28;20048;-75
2022/07/14 10:01:03;;;;;;;0.30;0.30;;;25.10;60.30;;;;;;5033851;28;20047;-74
2022/07/14 10:03:34;;;;;;;0.50;0.40;;;25.10;60.30;;;;;;5050431;28;20135;-75
2022/07/14 10:10:27;;;;;;;0.65;0.50;;;25.10;59.30;;;;;;4959733;28;20113;-76
2022/07/14 10:12:54;;;;;;;0.32;0.30;;;25.10;59.60;;;;;;4880983;29;20080;-74
2022/07/14 10:15:22;;;;;;;0.22;0.22;;;25.20;59.50;;;;;;4880492;29;20128;-75
2022/07/14 10:17:47;;;;;;;0.30;0.30;;;25.20;59.10;;;;;;4885571;29;20041;-76
2022/07/14 10:20:15;;;;;;;0.32;0.30;;;25.50;58.80;;;;;;4881225;29;20041;-75
2022/07/14 10:22:41;;;;;;;0.47;0.47;;;25.50;58.50;;;;;;4888376;29;20056;-76
2022/07/14 10:25:10;;;;;;;0.30;0.30;;;25.40;58.40;;;;;;4881251;29;20096;-75
2022/07/14 10:27:49;;;;;;;0.80;0.45;;;25.30;58.50;;;;;;4883544;29;20072;-78
2022/07/14 10:30:15;;;;;;;0.40;0.40;;;25.30;58.40;;;;;;4885058;29;20037;-77
2022/07/14 10:33:04;;;;;;;0.30;0.30;;;25.20;58.50;;;;;;4890228;29;20054;-76
2022/07/14 10:35:56;;;;;;;0.40;0.40;;;25.30;58.20;;;;;;4932356;29;20071;-76
2022/07/14 10:38:48;;;;;;;0.63;0.38;;;25.50;57.90;;;;;;4932865;29;20127;-77
2022/07/14 10:41:51;;;;;;;0.88;0.50;;;25.50;57.30;;;;;;4932808;29;20551;-77
2022/07/14 10:44:22;;;;;;;0.55;0.40;;;25.70;57.20;;;;;;4935162;29;20090;-77
2022/07/14 10:46:51;;;;;;;0.50;0.50;;;25.60;56.60;;;;;;4951913;28;20054;-77
2022/07/14 10:49:18;;;;;;;0.82;0.50;;;25.70;56.60;;;;;;5008349;28;20039;-77
2022/07/14 10:51:48;;;;;;;0.75;0.50;;;25.80;56.30;;;;;;5075125;28;20491;-76
2022/07/14 10:54:15;;;;;;;;;;;25.80;55.70;;;;;;5092720;28;20105;-77
2022/07/14 10:56:44;;;;;;;0.60;0.50;;;25.70;55.90;;;;;;5077378;28;19923;-77
2022/07/14 10:59:30;;;;;;;0.55;0.50;;;25.70;55.70;;;;;;5092259;28;20040;-75
2022/07/14 11:02:31;;;;;;;0.50;0.50;;;25.70;55.70;;;;;;5083930;28;20039;-75
2022/07/14 11:05:11;;;;;;;0.98;0.55;;;25.90;55.40;;;;;;5067895;28;20375;-74
2022/07/14 11:08:36;;;;;;;0.98;0.50;;;26.00;55.10;;;;;;5071087;28;20067;-78
2022/07/14 11:11:21;;;;;;;0.50;0.50;;;25.80;55.00;;;;;;5015702;28;20050;-76
2022/07/14 11:14:21;;;;;;;2.28;0.80;;;25.90;55.10;;;;;;4988867;28;20077;-76
2022/07/14 11:20:46;;;;;;;0.40;0.40;;;25.90;54.80;;;;;;4952634;29;20058;-77
2022/07/14 11:30:16;;;;;;;0.52;0.30;;;26.10;54.40;;;;;;4837094;29;20544;-79
2022/07/14 11:33:11;;;;;;;0.77;0.30;;;26.00;54.50;;;;;;4875096;29;20494;-78
2022/07/14 11:38:25;;;;;;;0.30;0.30;;;26.00;54.80;;;;;;4891113;29;20048;-78
2022/07/14 11:40:53;;;;;;;0.40;0.40;;;26.00;54.70;;;;;;4888838;29;20041;-78
2022/07/14 11:43:38;;;;;;;0.77;0.43;;;26.00;54.60;;;;;;4889232;29;20434;-78
2022/07/14 11:46:16;;;;;;;0.47;0.47;;;26.00;54.40;;;;;;4888266;29;20045;-79
2022/07/14 11:48:45;;;;;;;1.40;0.45;;;25.90;54.40;;;;;;4907357;29;20068;-78
2022/07/14 11:51:14;;;;;;;1.05;0.50;;;25.70;54.40;;;;;;4944281;29;20031;-78
2022/07/14 11:53:40;;;;;;;0.98;0.50;;;25.80;54.60;;;;;;4966586;29;20593;-78
2022/07/14 11:56:08;;;;;;;0.80;0.50;;;25.70;54.30;;;;;;4962756;28;20062;-78
2022/07/14 11:58:35;;;;;;;0.55;0.55;;;25.70;54.30;;;;;;5018531;28;20109;-78
2022/07/14 12:01:01;;;;;;;0.52;0.40;;;25.60;54.10;;;;;;5065915;28;20056;-79
2022/07/14 12:03:28;;;;;;;0.40;0.32;;;25.50;54.10;;;;;;5068967;28;20040;-78
2022/07/14 12:05:57;;;;;;;0.40;0.40;;;25.40;54.20;;;;;;5105741;28;20055;-78
2022/07/14 12:08:24;;;;;;;0.95;0.40;;;25.30;54.20;;;;;;5103529;28;20063;-78
2022/07/14 12:10:51;;;;;;;0.40;0.40;;;25.20;54.10;;;;;;5096172;28;20043;-79
2022/07/14 12:13:18;;;;;;;0.45;0.30;;;25.20;54.10;;;;;;5098510;28;20145;-78
2022/07/14 12:15:44;;;;;;;1.00;0.38;;;25.20;54.00;;;;;;5077706;28;20056;-78
2022/07/14 12:18:12;;;;;;;0.40;0.40;;;25.30;53.80;;;;;;5077615;28;20051;-77
2022/07/14 12:20:47;;;;;;;0.60;0.32;;;25.30;53.70;;;;;;5098764;28;20038;-78
2022/07/14 12:23:15;;;;;;;0.47;0.47;;;25.40;53.30;;;;;;5097102;28;20032;-78
2022/07/14 12:25:43;;;;;;;0.80;0.50;;;25.40;53.30;;;;;;5084157;28;20074;-79
2022/07/14 12:28:12;;;;;;;0.63;0.40;;;25.40;53.00;;;;;;5110800;28;20040;-78
2022/07/14 12:30:58;;;;;;;1.10;0.52;;;25.30;53.20;;;;;;5110868;28;20028;-78
2022/07/14 12:33:28;;;;;;;0.98;0.55;;;25.30;53.00;;;;;;5102878;28;20461;-78
2022/07/14 12:35:56;;;;;;;1.67;0.50;;;25.20;52.80;;;;;;5078695;28;20107;-78
2022/07/14 12:38:23;;;;;;;0.50;0.50;;;25.10;53.10;;;;;;5097394;28;20119;-78
2022/07/14 12:40:54;;;;;;;0.40;0.40;;;25.00;53.10;;;;;;5078246;28;20044;-79
2022/07/14 12:43:20;;;;;;;;;;;25.00;53.20;;;;;;5081869;28;20040;-79
2022/07/14 12:46:02;;;;;;;0.35;0.35;;;25.00;53.30;;;;;;5101799;28;19919;-78
2022/07/14 12:48:31;;;;;;;0.65;0.40;;;24.90;53.20;;;;;;5080555;28;20063;-78
2022/07/14 13:42:41;;;;;;;0.30;0.30;;;24.40;53.10;;;;;;5175616;27;20152;-76
2022/07/14 13:45:07;;;;;;;0.55;0.30;;;25.00;52.20;;;;;;5150295;27;20062;-76
2022/07/14 13:47:33;;;;;;;0.38;0.38;;;25.00;51.90;;;;;;5150320;27;20043;-75
2022/07/14 13:52:38;;;;;;;0.47;0.40;;;24.80;51.70;;;;;;5134197;27;20054;-76
2022/07/14 13:55:05;;;;;;;0.45;0.40;;;24.70;51.80;;;;;;5150897;27;20363;-76
2022/07/14 13:57:30;;;;;;;0.40;0.40;;;24.70;52.20;;;;;;5150514;27;20131;-76
2022/07/14 13:59:57;;;;;;;0.80;0.40;;;24.60;52.20;;;;;;5150214;27;20043;-76
2022/07/14 14:02:23;;;;;;;1.88;0.57;;;24.50;52.10;;;;;;5131963;27;20125;-76
2022/07/14 14:04:48;;;;;;;0.52;0.50;;;24.40;52.30;;;;;;5150257;27;20518;-76
2022/07/14 14:07:15;;;;;;;0.30;0.30;;;24.30;52.40;;;;;;5131836;27;20125;-76
2022/07/14 14:09:41;;;;;;;0.40;0.40;;;24.30;52.50;;;;;;5131680;27;20050;-76
2022/07/14 14:12:06;;;;;;;0.85;0.50;;;24.30;52.50;;;;;;5149792;27;20047;-76
2022/07/14 14:14:32;;;;;;;0.30;0.30;;;24.40;52.40;;;;;;5131515;27;20034;-76
2022/07/14 14:16:58;;;;;;;1.83;0.40;;;24.50;52.30;;;;;;5131998;27;20031;-76
2022/07/14 14:19:23;;;;;;;0.40;0.40;;;24.60;52.10;;;;;;5150418;27;20088;-76
2022/07/14 14:21:50;;;;;;;0.47;0.47;;;24.50;52.00;;;;;;5149793;27;20446;-76
2022/07/14 14:24:17;;;;;;;0.75;0.50;;;24.50;51.80;;;;;;5131759;27;20056;-75
2022/07/14 14:26:43;;;;;;;1.02;0.40;;;24.50;51.80;;;;;;5150183;27;20452;-75